sensor_id;sensor_type;location;lat;lon;timestamp;P1;durP1;ratioP1;P2;durP2;ratioP2
36475;SDS011;56615;42.682;23.364;2023-01-16T00:02:20;61.70;;;35.08;;
36475;SDS011;56615;42.682;23.364;2023-01-16T00:04:45;60.50;;;34.85;;
36475;SDS011;56615;42.682;23.364;2023-01-16T00:07:13;58.55;;;33.75;;
36475;SDS011;56615;42.682;23.364;2023-01-16T00:09:38;61.58;;;34.90;;
36475;SDS011;56615;42.682;23.364;2023-01-16T00:12:05;61.22;;;34.05;;
36475;SDS011;56615;42.682;23.364;2023-01-16T00:14:31;59.63;;;33.75;;
36475;SDS011;56615;42.682;23.364;2023-01-16T00:16:56;63.60;;;33.00;;
36475;SDS011;56615;42.682;23.364;2023-01-16T00:19:22;56.08;;;31.85;;
36475;SDS011;56615;42.682;23.364;2023-01-16T00:21:49;57.80;;;32.72;;
36475;SDS011;56615;42.682;23.364;2023-01-16T00:24:19;57.42;;;31.98;;
36475;SDS011;56615;42.682;23.364;2023-01-16T00:26:45;58.55;;;31.83;;
36475;SDS011;56615;42.682;23.364;2023-01-16T00:29:10;58.25;;;31.48;;
36475;SDS011;56615;42.682;23.364;2023-01-16T00:34:12;54.20;;;31.10;;
36475;SDS011;56615;42.682;23.364;2023-01-16T00:36:37;53.92;;;30.55;;
36475;SDS011;56615;42.682;23.364;2023-01-16T00:39:04;51.78;;;28.45;;
36475;SDS011;56615;42.682;23.364;2023-01-16T00:41:30;52.75;;;29.58;;
36475;SDS011;56615;42.682;23.364;2023-01-16T00:43:55;54.25;;;30.63;;
36475;SDS011;56615;42.682;23.364;2023-01-16T00:46:23;53.20;;;29.55;;
36475;SDS011;56615;42.682;23.364;2023-01-16T00:48:54;52.58;;;29.42;;
36475;SDS011;56615;42.682;23.364;2023-01-16T00:51:20;54.05;;;29.58;;
36475;SDS011;56615;42.682;23.364;2023-01-16T00:53:45;50.22;;;28.55;;
36475;SDS011;56615;42.682;23.364;2023-01-16T00:56:11;49.58;;;28.52;;
36475;SDS011;56615;42.682;23.364;2023-01-16T00:58:36;50.90;;;28.55;;
36475;SDS011;56615;42.682;23.364;2023-01-16T01:01:02;50.88;;;28.60;;
36475;SDS011;56615;42.682;23.364;2023-01-16T01:03:28;49.88;;;28.20;;
36475;SDS011;56615;42.682;23.364;2023-01-16T01:05:53;51.53;;;27.88;;
36475;SDS011;56615;42.682;23.364;2023-01-16T01:08:19;49.63;;;28.85;;
36475;SDS011;56615;42.682;23.364;2023-01-16T01:10:44;48.63;;;26.73;;
36475;SDS011;56615;42.682;23.364;2023-01-16T01:13:10;51.05;;;28.75;;
36475;SDS011;56615;42.682;23.364;2023-01-16T01:15:37;52.95;;;28.50;;
36475;SDS011;56615;42.682;23.364;2023-01-16T01:18:03;51.78;;;28.40;;
36475;SDS011;56615;42.682;23.364;2023-01-16T01:20:29;47.20;;;26.63;;
36475;SDS011;56615;42.682;23.364;2023-01-16T01:22:54;45.47;;;26.05;;
36475;SDS011;56615;42.682;23.364;2023-01-16T01:25:20;46.75;;;27.05;;
36475;SDS011;56615;42.682;23.364;2023-01-16T01:27:45;47.10;;;26.92;;
36475;SDS011;56615;42.682;23.364;2023-01-16T01:30:11;48.90;;;27.15;;
36475;SDS011;56615;42.682;23.364;2023-01-16T01:32:36;45.25;;;26.23;;
36475;SDS011;56615;42.682;23.364;2023-01-16T01:35:03;48.17;;;26.75;;
36475;SDS011;56615;42.682;23.364;2023-01-16T01:37:29;46.40;;;26.88;;
36475;SDS011;56615;42.682;23.364;2023-01-16T01:39:55;46.42;;;26.10;;
36475;SDS011;56615;42.682;23.364;2023-01-16T01:42:20;47.05;;;26.38;;
36475;SDS011;56615;42.682;23.364;2023-01-16T01:47:41;48.63;;;27.77;;
36475;SDS011;56615;42.682;23.364;2023-01-16T01:50:18;50.22;;;27.67;;
36475;SDS011;56615;42.682;23.364;2023-01-16T01:52:47;47.85;;;27.02;;
36475;SDS011;56615;42.682;23.364;2023-01-16T01:55:13;50.05;;;27.95;;
36475;SDS011;56615;42.682;23.364;2023-01-16T02:00:52;48.97;;;26.55;;
36475;SDS011;56615;42.682;23.364;2023-01-16T02:03:21;48.40;;;26.35;;
36475;SDS011;56615;42.682;23.364;2023-01-16T02:05:57;49.28;;;26.05;;
36475;SDS011;56615;42.682;23.364;2023-01-16T02:11:36;49.47;;;26.75;;
36475;SDS011;56615;42.682;23.364;2023-01-16T02:14:11;48.78;;;26.73;;
36475;SDS011;56615;42.682;23.364;2023-01-16T02:16:38;48.58;;;26.85;;
36475;SDS011;56615;42.682;23.364;2023-01-16T02:19:31;51.63;;;26.67;;
36475;SDS011;56615;42.682;23.364;2023-01-16T02:55:48;50.28;;;24.45;;
36475;SDS011;56615;42.682;23.364;2023-01-16T02:58:18;47.15;;;25.58;;
36475;SDS011;56615;42.682;23.364;2023-01-16T03:00:51;44.50;;;24.73;;
36475;SDS011;56615;42.682;23.364;2023-01-16T03:06:00;45.40;;;23.95;;
36475;SDS011;56615;42.682;23.364;2023-01-16T03:08:37;44.38;;;24.08;;
36475;SDS011;56615;42.682;23.364;2023-01-16T03:19:23;45.20;;;24.00;;
36475;SDS011;56615;42.682;23.364;2023-01-16T03:27:05;51.22;;;27.58;;
36475;SDS011;56615;42.682;23.364;2023-01-16T03:29:44;49.17;;;26.58;;
36475;SDS011;56615;42.682;23.364;2023-01-16T03:32:18;49.33;;;26.30;;
36475;SDS011;56615;42.682;23.364;2023-01-16T03:34:53;51.22;;;26.67;;
36475;SDS011;56615;42.682;23.364;2023-01-16T03:37:36;47.97;;;26.27;;
36475;SDS011;56615;42.682;23.364;2023-01-16T03:40:06;49.92;;;25.98;;
36475;SDS011;56615;42.682;23.364;2023-01-16T03:42:36;46.20;;;25.60;;
36475;SDS011;56615;42.682;23.364;2023-01-16T03:45:47;53.35;;;27.95;;
36475;SDS011;56615;42.682;23.364;2023-01-16T03:48:22;52.60;;;28.45;;
36475;SDS011;56615;42.682;23.364;2023-01-16T03:50:54;52.22;;;27.45;;
36475;SDS011;56615;42.682;23.364;2023-01-16T03:53:23;54.95;;;28.48;;
36475;SDS011;56615;42.682;23.364;2023-01-16T03:58:31;47.47;;;25.52;;
36475;SDS011;56615;42.682;23.364;2023-01-16T04:04:16;49.28;;;24.92;;
36475;SDS011;56615;42.682;23.364;2023-01-16T04:06:45;45.15;;;23.60;;
36475;SDS011;56615;42.682;23.364;2023-01-16T04:09:14;47.50;;;23.95;;
36475;SDS011;56615;42.682;23.364;2023-01-16T04:11:45;47.60;;;24.55;;
36475;SDS011;56615;42.682;23.364;2023-01-16T04:14:11;46.70;;;24.95;;
36475;SDS011;56615;42.682;23.364;2023-01-16T04:16:39;45.75;;;24.70;;
36475;SDS011;56615;42.682;23.364;2023-01-16T04:19:05;43.35;;;23.83;;
36475;SDS011;56615;42.682;23.364;2023-01-16T04:21:32;44.75;;;24.13;;
36475;SDS011;56615;42.682;23.364;2023-01-16T04:23:57;43.90;;;23.23;;
36475;SDS011;56615;42.682;23.364;2023-01-16T04:26:24;47.55;;;24.10;;
36475;SDS011;56615;42.682;23.364;2023-01-16T04:28:50;44.10;;;23.17;;
36475;SDS011;56615;42.682;23.364;2023-01-16T04:31:20;52.22;;;24.17;;
36475;SDS011;56615;42.682;23.364;2023-01-16T04:33:47;44.90;;;22.67;;
36475;SDS011;56615;42.682;23.364;2023-01-16T04:36:12;46.13;;;23.52;;
36475;SDS011;56615;42.682;23.364;2023-01-16T04:38:48;51.03;;;24.88;;
36475;SDS011;56615;42.682;23.364;2023-01-16T04:41:14;54.83;;;25.50;;
36475;SDS011;56615;42.682;23.364;2023-01-16T04:44:01;53.55;;;24.75;;
36475;SDS011;56615;42.682;23.364;2023-01-16T04:46:27;49.90;;;24.45;;
36475;SDS011;56615;42.682;23.364;2023-01-16T04:48:54;54.92;;;25.67;;
36475;SDS011;56615;42.682;23.364;2023-01-16T04:51:20;56.92;;;25.90;;
36475;SDS011;56615;42.682;23.364;2023-01-16T04:53:46;56.30;;;26.83;;
36475;SDS011;56615;42.682;23.364;2023-01-16T04:56:11;54.70;;;25.58;;
36475;SDS011;56615;42.682;23.364;2023-01-16T04:58:36;59.15;;;27.35;;
36475;SDS011;56615;42.682;23.364;2023-01-16T05:01:06;65.57;;;28.90;;
36475;SDS011;56615;42.682;23.364;2023-01-16T05:03:34;58.75;;;27.67;;
36475;SDS011;56615;42.682;23.364;2023-01-16T05:05:59;58.63;;;28.23;;
36475;SDS011;56615;42.682;23.364;2023-01-16T05:08:25;60.97;;;27.67;;
36475;SDS011;56615;42.682;23.364;2023-01-16T05:10:53;63.50;;;27.70;;
36475;SDS011;56615;42.682;23.364;2023-01-16T05:13:19;65.25;;;29.23;;
36475;SDS011;56615;42.682;23.364;2023-01-16T05:15:45;66.03;;;28.52;;
36475;SDS011;56615;42.682;23.364;2023-01-16T05:18:10;63.47;;;28.75;;
36475;SDS011;56615;42.682;23.364;2023-01-16T05:20:37;70.43;;;30.52;;
36475;SDS011;56615;42.682;23.364;2023-01-16T05:23:02;70.53;;;30.23;;
36475;SDS011;56615;42.682;23.364;2023-01-16T05:25:28;73.22;;;30.65;;
36475;SDS011;56615;42.682;23.364;2023-01-16T05:27:54;78.38;;;30.90;;
36475;SDS011;56615;42.682;23.364;2023-01-16T05:30:19;73.88;;;31.25;;
36475;SDS011;56615;42.682;23.364;2023-01-16T05:32:45;71.00;;;30.77;;
36475;SDS011;56615;42.682;23.364;2023-01-16T05:35:10;73.72;;;30.67;;
36475;SDS011;56615;42.682;23.364;2023-01-16T05:37:36;74.93;;;29.70;;
36475;SDS011;56615;42.682;23.364;2023-01-16T05:40:01;68.78;;;30.95;;
36475;SDS011;56615;42.682;23.364;2023-01-16T05:42:27;73.38;;;30.35;;
36475;SDS011;56615;42.682;23.364;2023-01-16T05:44:53;77.80;;;32.08;;
36475;SDS011;56615;42.682;23.364;2023-01-16T05:47:19;71.35;;;31.73;;
36475;SDS011;56615;42.682;23.364;2023-01-16T05:49:44;72.63;;;31.17;;
36475;SDS011;56615;42.682;23.364;2023-01-16T05:52:10;77.38;;;32.03;;
36475;SDS011;56615;42.682;23.364;2023-01-16T05:54:35;72.00;;;30.95;;
36475;SDS011;56615;42.682;23.364;2023-01-16T05:57:04;73.30;;;30.95;;
36475;SDS011;56615;42.682;23.364;2023-01-16T05:59:29;76.13;;;30.40;;
36475;SDS011;56615;42.682;23.364;2023-01-16T06:01:55;70.40;;;30.10;;
36475;SDS011;56615;42.682;23.364;2023-01-16T06:04:22;68.25;;;30.05;;
36475;SDS011;56615;42.682;23.364;2023-01-16T06:06:47;69.30;;;31.40;;
36475;SDS011;56615;42.682;23.364;2023-01-16T06:09:13;70.95;;;30.90;;
36475;SDS011;56615;42.682;23.364;2023-01-16T06:11:38;71.53;;;30.73;;
36475;SDS011;56615;42.682;23.364;2023-01-16T06:14:04;71.28;;;31.20;;
36475;SDS011;56615;42.682;23.364;2023-01-16T06:16:33;78.10;;;31.42;;
36475;SDS011;56615;42.682;23.364;2023-01-16T06:18:59;67.50;;;30.67;;
36475;SDS011;56615;42.682;23.364;2023-01-16T06:21:31;73.25;;;31.02;;
36475;SDS011;56615;42.682;23.364;2023-01-16T06:24:09;73.95;;;30.58;;
36475;SDS011;56615;42.682;23.364;2023-01-16T06:29:25;70.28;;;29.88;;
36475;SDS011;56615;42.682;23.364;2023-01-16T06:31:50;84.88;;;31.55;;
36475;SDS011;56615;42.682;23.364;2023-01-16T06:34:16;70.93;;;30.27;;
36475;SDS011;56615;42.682;23.364;2023-01-16T06:36:47;69.55;;;30.70;;
36475;SDS011;56615;42.682;23.364;2023-01-16T06:39:18;73.43;;;31.52;;
36475;SDS011;56615;42.682;23.364;2023-01-16T06:41:44;75.00;;;31.13;;
36475;SDS011;56615;42.682;23.364;2023-01-16T06:44:12;72.88;;;31.48;;
36475;SDS011;56615;42.682;23.364;2023-01-16T06:46:37;71.07;;;30.98;;
36475;SDS011;56615;42.682;23.364;2023-01-16T06:49:03;74.30;;;31.67;;
36475;SDS011;56615;42.682;23.364;2023-01-16T06:51:31;70.63;;;30.98;;
36475;SDS011;56615;42.682;23.364;2023-01-16T06:53:57;72.50;;;32.72;;
36475;SDS011;56615;42.682;23.364;2023-01-16T06:56:25;66.68;;;29.10;;
36475;SDS011;56615;42.682;23.364;2023-01-16T06:58:51;67.38;;;31.52;;
36475;SDS011;56615;42.682;23.364;2023-01-16T07:04:41;72.47;;;31.38;;
36475;SDS011;56615;42.682;23.364;2023-01-16T07:07:06;71.25;;;33.22;;
36475;SDS011;56615;42.682;23.364;2023-01-16T07:09:33;75.15;;;34.50;;
36475;SDS011;56615;42.682;23.364;2023-01-16T07:12:09;85.53;;;38.78;;
36475;SDS011;56615;42.682;23.364;2023-01-16T07:14:43;81.68;;;39.90;;
36475;SDS011;56615;42.682;23.364;2023-01-16T07:20:35;88.45;;;44.38;;
36475;SDS011;56615;42.682;23.364;2023-01-16T07:23:20;91.75;;;44.45;;
36475;SDS011;56615;42.682;23.364;2023-01-16T07:26:05;108.40;;;52.28;;
36475;SDS011;56615;42.682;23.364;2023-01-16T07:28:32;110.30;;;53.72;;
36475;SDS011;56615;42.682;23.364;2023-01-16T07:30:58;118.85;;;51.78;;
36475;SDS011;56615;42.682;23.364;2023-01-16T07:33:24;117.15;;;52.13;;
36475;SDS011;56615;42.682;23.364;2023-01-16T07:35:55;118.53;;;54.33;;
36475;SDS011;56615;42.682;23.364;2023-01-16T07:38:23;132.82;;;57.92;;
36475;SDS011;56615;42.682;23.364;2023-01-16T07:40:49;148.80;;;65.32;;
36475;SDS011;56615;42.682;23.364;2023-01-16T07:43:22;166.68;;;71.22;;
36475;SDS011;56615;42.682;23.364;2023-01-16T07:52:42;282.25;;;116.85;;
36475;SDS011;56615;42.682;23.364;2023-01-16T07:55:12;260.10;;;108.88;;
36475;SDS011;56615;42.682;23.364;2023-01-16T07:57:39;226.75;;;100.03;;
36475;SDS011;56615;42.682;23.364;2023-01-16T08:00:11;226.13;;;95.20;;
36475;SDS011;56615;42.682;23.364;2023-01-16T08:02:39;214.90;;;89.22;;
36475;SDS011;56615;42.682;23.364;2023-01-16T08:05:05;203.40;;;84.63;;
36475;SDS011;56615;42.682;23.364;2023-01-16T08:07:37;198.10;;;73.45;;
36475;SDS011;56615;42.682;23.364;2023-01-16T08:10:03;184.40;;;73.60;;
36475;SDS011;56615;42.682;23.364;2023-01-16T08:12:29;172.13;;;68.55;;
36475;SDS011;56615;42.682;23.364;2023-01-16T08:14:55;144.20;;;54.22;;
36475;SDS011;56615;42.682;23.364;2023-01-16T08:17:21;117.53;;;48.00;;
36475;SDS011;56615;42.682;23.364;2023-01-16T08:19:50;108.25;;;45.13;;
36475;SDS011;56615;42.682;23.364;2023-01-16T08:22:23;102.80;;;44.60;;
36475;SDS011;56615;42.682;23.364;2023-01-16T08:24:49;105.00;;;44.75;;
36475;SDS011;56615;42.682;23.364;2023-01-16T08:27:17;107.70;;;46.05;;
36475;SDS011;56615;42.682;23.364;2023-01-16T08:29:44;117.88;;;49.10;;
36475;SDS011;56615;42.682;23.364;2023-01-16T08:32:15;122.10;;;50.35;;
36475;SDS011;56615;42.682;23.364;2023-01-16T08:34:41;111.50;;;49.42;;
36475;SDS011;56615;42.682;23.364;2023-01-16T08:37:07;118.72;;;50.35;;
36475;SDS011;56615;42.682;23.364;2023-01-16T08:39:35;118.47;;;49.55;;
36475;SDS011;56615;42.682;23.364;2023-01-16T08:42:02;96.68;;;46.63;;
36475;SDS011;56615;42.682;23.364;2023-01-16T08:44:46;93.45;;;43.63;;
36475;SDS011;56615;42.682;23.364;2023-01-16T08:47:30;102.03;;;45.92;;
36475;SDS011;56615;42.682;23.364;2023-01-16T08:50:16;95.80;;;42.15;;
36475;SDS011;56615;42.682;23.364;2023-01-16T08:53:01;79.25;;;38.00;;
36475;SDS011;56615;42.682;23.364;2023-01-16T08:55:27;75.70;;;36.30;;
36475;SDS011;56615;42.682;23.364;2023-01-16T08:57:53;71.57;;;35.97;;
36475;SDS011;56615;42.682;23.364;2023-01-16T09:00:19;77.63;;;36.25;;
36475;SDS011;56615;42.682;23.364;2023-01-16T09:02:45;80.13;;;35.60;;
36475;SDS011;56615;42.682;23.364;2023-01-16T09:05:11;79.32;;;37.33;;
36475;SDS011;56615;42.682;23.364;2023-01-16T09:07:38;77.43;;;36.30;;
36475;SDS011;56615;42.682;23.364;2023-01-16T09:10:04;83.38;;;38.20;;
36475;SDS011;56615;42.682;23.364;2023-01-16T09:12:30;90.30;;;40.10;;
36475;SDS011;56615;42.682;23.364;2023-01-16T09:15:14;87.88;;;41.10;;
36475;SDS011;56615;42.682;23.364;2023-01-16T09:18:06;80.72;;;38.97;;
36475;SDS011;56615;42.682;23.364;2023-01-16T09:20:32;75.63;;;38.78;;
36475;SDS011;56615;42.682;23.364;2023-01-16T09:22:58;79.35;;;38.17;;
36475;SDS011;56615;42.682;23.364;2023-01-16T09:25:29;90.38;;;42.58;;
36475;SDS011;56615;42.682;23.364;2023-01-16T09:28:01;91.32;;;42.97;;
36475;SDS011;56615;42.682;23.364;2023-01-16T09:30:32;84.53;;;41.20;;
36475;SDS011;56615;42.682;23.364;2023-01-16T09:32:58;84.40;;;41.22;;
36475;SDS011;56615;42.682;23.364;2023-01-16T09:38:32;76.10;;;35.65;;
36475;SDS011;56615;42.682;23.364;2023-01-16T09:40:58;66.38;;;34.17;;
36475;SDS011;56615;42.682;23.364;2023-01-16T09:43:35;63.90;;;33.50;;
36475;SDS011;56615;42.682;23.364;2023-01-16T10:02:09;40.95;;;21.80;;
36475;SDS011;56615;42.682;23.364;2023-01-16T10:04:57;38.88;;;22.13;;
36475;SDS011;56615;42.682;23.364;2023-01-16T10:25:29;39.20;;;22.35;;
36475;SDS011;56615;42.682;23.364;2023-01-16T10:34:39;42.20;;;21.70;;
36475;SDS011;56615;42.682;23.364;2023-01-16T10:37:20;50.38;;;26.77;;
36475;SDS011;56615;42.682;23.364;2023-01-16T10:39:47;47.47;;;24.42;;
36475;SDS011;56615;42.682;23.364;2023-01-16T10:42:15;39.67;;;22.60;;
36475;SDS011;56615;42.682;23.364;2023-01-16T10:47:50;47.63;;;25.50;;
36475;SDS011;56615;42.682;23.364;2023-01-16T10:50:35;45.03;;;26.23;;
36475;SDS011;56615;42.682;23.364;2023-01-16T10:53:01;52.05;;;28.75;;
36475;SDS011;56615;42.682;23.364;2023-01-16T10:55:26;52.05;;;28.35;;
36475;SDS011;56615;42.682;23.364;2023-01-16T11:00:58;54.47;;;28.02;;
36475;SDS011;56615;42.682;23.364;2023-01-16T11:03:48;51.05;;;27.65;;
36475;SDS011;56615;42.682;23.364;2023-01-16T11:06:18;53.00;;;28.13;;
36475;SDS011;56615;42.682;23.364;2023-01-16T11:08:47;48.97;;;27.02;;
36475;SDS011;56615;42.682;23.364;2023-01-16T11:11:14;45.58;;;25.27;;
36475;SDS011;56615;42.682;23.364;2023-01-16T11:13:59;40.97;;;24.08;;
36475;SDS011;56615;42.682;23.364;2023-01-16T11:16:44;38.22;;;21.95;;
36475;SDS011;56615;42.682;23.364;2023-01-16T11:19:28;37.20;;;20.67;;
36475;SDS011;56615;42.682;23.364;2023-01-16T11:22:20;36.15;;;20.58;;
36475;SDS011;56615;42.682;23.364;2023-01-16T11:24:49;34.30;;;20.27;;
36475;SDS011;56615;42.682;23.364;2023-01-16T11:27:20;39.50;;;21.40;;
36475;SDS011;56615;42.682;23.364;2023-01-16T11:29:51;39.90;;;23.10;;
36475;SDS011;56615;42.682;23.364;2023-01-16T11:32:17;39.33;;;22.20;;
36475;SDS011;56615;42.682;23.364;2023-01-16T11:34:49;40.28;;;23.25;;
36475;SDS011;56615;42.682;23.364;2023-01-16T11:37:17;40.53;;;22.63;;
36475;SDS011;56615;42.682;23.364;2023-01-16T11:39:46;39.55;;;23.48;;
36475;SDS011;56615;42.682;23.364;2023-01-16T11:42:13;41.78;;;22.88;;
36475;SDS011;56615;42.682;23.364;2023-01-16T11:44:58;38.00;;;21.75;;
36475;SDS011;56615;42.682;23.364;2023-01-16T11:47:51;41.40;;;22.25;;
36475;SDS011;56615;42.682;23.364;2023-01-16T11:50:25;44.60;;;24.15;;
36475;SDS011;56615;42.682;23.364;2023-01-16T11:52:56;41.33;;;24.20;;
36475;SDS011;56615;42.682;23.364;2023-01-16T12:02:00;36.50;;;20.77;;
36475;SDS011;56615;42.682;23.364;2023-01-16T12:05:13;45.47;;;24.27;;
36475;SDS011;56615;42.682;23.364;2023-01-16T12:30:34;39.92;;;20.58;;
36475;SDS011;56615;42.682;23.364;2023-01-16T12:35:41;39.13;;;19.85;;
36475;SDS011;56615;42.682;23.364;2023-01-16T12:38:36;35.58;;;19.50;;
36475;SDS011;56615;42.682;23.364;2023-01-16T12:52:18;25.10;;;15.15;;
36475;SDS011;56615;42.682;23.364;2023-01-16T13:00:00;27.27;;;15.98;;
36475;SDS011;56615;42.682;23.364;2023-01-16T13:02:36;26.48;;;15.27;;
36475;SDS011;56615;42.682;23.364;2023-01-16T13:05:21;25.23;;;14.50;;
36475;SDS011;56615;42.682;23.364;2023-01-16T13:08:31;28.67;;;15.00;;
36475;SDS011;56615;42.682;23.364;2023-01-16T13:11:04;28.85;;;15.85;;
36475;SDS011;56615;42.682;23.364;2023-01-16T13:14:05;32.00;;;16.65;;
36475;SDS011;56615;42.682;23.364;2023-01-16T13:16:34;26.73;;;15.13;;
36475;SDS011;56615;42.682;23.364;2023-01-16T13:21:50;26.55;;;13.30;;
36475;SDS011;56615;42.682;23.364;2023-01-16T13:24:39;25.23;;;14.48;;
36475;SDS011;56615;42.682;23.364;2023-01-16T13:27:23;24.30;;;13.23;;
36475;SDS011;56615;42.682;23.364;2023-01-16T13:30:03;25.05;;;12.48;;
36475;SDS011;56615;42.682;23.364;2023-01-16T13:32:31;25.85;;;14.50;;
36475;SDS011;56615;42.682;23.364;2023-01-16T13:43:26;24.50;;;15.00;;
36475;SDS011;56615;42.682;23.364;2023-01-16T13:46:39;25.38;;;14.80;;
36475;SDS011;56615;42.682;23.364;2023-01-16T13:49:06;29.38;;;16.15;;
36475;SDS011;56615;42.682;23.364;2023-01-16T13:51:39;28.42;;;16.52;;
36475;SDS011;56615;42.682;23.364;2023-01-16T13:54:07;28.73;;;15.95;;
36475;SDS011;56615;42.682;23.364;2023-01-16T13:56:47;27.63;;;15.63;;
36475;SDS011;56615;42.682;23.364;2023-01-16T13:59:41;31.25;;;16.65;;
36475;SDS011;56615;42.682;23.364;2023-01-16T14:08:13;32.45;;;17.60;;
36475;SDS011;56615;42.682;23.364;2023-01-16T14:17:25;30.35;;;16.65;;
36475;SDS011;56615;42.682;23.364;2023-01-16T14:20:02;29.05;;;17.45;;
36475;SDS011;56615;42.682;23.364;2023-01-16T14:25:03;35.55;;;19.00;;
36475;SDS011;56615;42.682;23.364;2023-01-16T14:27:32;35.58;;;19.85;;
36475;SDS011;56615;42.682;23.364;2023-01-16T14:30:03;34.20;;;19.35;;
36475;SDS011;56615;42.682;23.364;2023-01-16T14:32:30;29.85;;;16.83;;
36475;SDS011;56615;42.682;23.364;2023-01-16T14:34:57;27.83;;;15.85;;
36475;SDS011;56615;42.682;23.364;2023-01-16T14:37:33;32.35;;;17.70;;
36475;SDS011;56615;42.682;23.364;2023-01-16T14:42:38;34.88;;;19.27;;
36475;SDS011;56615;42.682;23.364;2023-01-16T14:45:29;34.58;;;18.98;;
36475;SDS011;56615;42.682;23.364;2023-01-16T14:53:51;29.63;;;17.63;;
36475;SDS011;56615;42.682;23.364;2023-01-16T14:56:37;32.80;;;18.30;;
36475;SDS011;56615;42.682;23.364;2023-01-16T14:59:12;30.60;;;17.77;;
36475;SDS011;56615;42.682;23.364;2023-01-16T15:04:59;39.50;;;20.85;;
36475;SDS011;56615;42.682;23.364;2023-01-16T15:10:19;40.35;;;20.65;;
36475;SDS011;56615;42.682;23.364;2023-01-16T15:12:47;38.15;;;20.90;;
36475;SDS011;56615;42.682;23.364;2023-01-16T15:17:55;33.90;;;18.02;;
36475;SDS011;56615;42.682;23.364;2023-01-16T15:20:41;34.08;;;17.88;;
36475;SDS011;56615;42.682;23.364;2023-01-16T15:23:27;31.38;;;18.52;;
36475;SDS011;56615;42.682;23.364;2023-01-16T15:31:10;31.60;;;18.13;;
36475;SDS011;56615;42.682;23.364;2023-01-16T15:33:39;32.00;;;17.58;;
36475;SDS011;56615;42.682;23.364;2023-01-16T15:36:15;28.52;;;16.48;;
36475;SDS011;56615;42.682;23.364;2023-01-16T15:38:47;31.05;;;18.55;;
36475;SDS011;56615;42.682;23.364;2023-01-16T15:41:29;30.05;;;17.85;;
36475;SDS011;56615;42.682;23.364;2023-01-16T15:44:17;32.42;;;17.08;;
36475;SDS011;56615;42.682;23.364;2023-01-16T15:49:44;31.23;;;18.38;;
36475;SDS011;56615;42.682;23.364;2023-01-16T15:52:11;30.80;;;18.05;;
36475;SDS011;56615;42.682;23.364;2023-01-16T15:54:37;31.83;;;18.00;;
36475;SDS011;56615;42.682;23.364;2023-01-16T15:57:03;34.28;;;19.45;;
36475;SDS011;56615;42.682;23.364;2023-01-16T15:59:30;32.58;;;18.75;;
36475;SDS011;56615;42.682;23.364;2023-01-16T16:04:59;32.55;;;18.70;;
36475;SDS011;56615;42.682;23.364;2023-01-16T16:07:25;33.20;;;19.25;;
36475;SDS011;56615;42.682;23.364;2023-01-16T16:09:54;32.97;;;19.58;;
36475;SDS011;56615;42.682;23.364;2023-01-16T16:12:26;34.03;;;19.10;;
36475;SDS011;56615;42.682;23.364;2023-01-16T16:15:25;38.80;;;19.75;;
36475;SDS011;56615;42.682;23.364;2023-01-16T16:18:12;33.33;;;19.13;;
36475;SDS011;56615;42.682;23.364;2023-01-16T16:20:40;35.20;;;19.48;;
36475;SDS011;56615;42.682;23.364;2023-01-16T16:23:17;36.47;;;20.33;;
36475;SDS011;56615;42.682;23.364;2023-01-16T16:26:04;34.53;;;19.63;;
36475;SDS011;56615;42.682;23.364;2023-01-16T16:30:56;35.20;;;19.70;;
36475;SDS011;56615;42.682;23.364;2023-01-16T16:33:37;33.95;;;18.52;;
36475;SDS011;56615;42.682;23.364;2023-01-16T16:36:07;42.83;;;24.05;;
36475;SDS011;56615;42.682;23.364;2023-01-16T16:43:49;30.83;;;17.92;;
36475;SDS011;56615;42.682;23.364;2023-01-16T16:55:24;34.22;;;17.52;;
36475;SDS011;56615;42.682;23.364;2023-01-16T16:57:52;35.35;;;18.50;;
36475;SDS011;56615;42.682;23.364;2023-01-16T17:00:22;36.15;;;18.85;;
36475;SDS011;56615;42.682;23.364;2023-01-16T17:02:57;35.67;;;19.13;;
36475;SDS011;56615;42.682;23.364;2023-01-16T17:05:28;35.08;;;18.88;;
36475;SDS011;56615;42.682;23.364;2023-01-16T17:07:55;33.22;;;18.80;;
36475;SDS011;56615;42.682;23.364;2023-01-16T17:13:34;37.70;;;20.88;;
36475;SDS011;56615;42.682;23.364;2023-01-16T17:16:02;35.20;;;19.50;;
36475;SDS011;56615;42.682;23.364;2023-01-16T17:21:39;33.25;;;19.30;;
36475;SDS011;56615;42.682;23.364;2023-01-16T17:24:04;34.22;;;19.70;;
36475;SDS011;56615;42.682;23.364;2023-01-16T17:26:32;36.78;;;19.88;;
36475;SDS011;56615;42.682;23.364;2023-01-16T17:32:28;39.95;;;20.33;;
36475;SDS011;56615;42.682;23.364;2023-01-16T17:37:42;38.90;;;21.10;;
36475;SDS011;56615;42.682;23.364;2023-01-16T17:40:42;45.85;;;22.58;;
36475;SDS011;56615;42.682;23.364;2023-01-16T17:43:12;44.47;;;24.15;;
36475;SDS011;56615;42.682;23.364;2023-01-16T17:46:01;49.05;;;25.98;;
36475;SDS011;56615;42.682;23.364;2023-01-16T17:48:30;51.55;;;28.10;;
36475;SDS011;56615;42.682;23.364;2023-01-16T17:50:58;47.92;;;27.25;;
36475;SDS011;56615;42.682;23.364;2023-01-16T17:53:24;51.85;;;27.88;;
36475;SDS011;56615;42.682;23.364;2023-01-16T17:55:52;49.58;;;26.50;;
36475;SDS011;56615;42.682;23.364;2023-01-16T18:00:58;44.58;;;25.73;;
36475;SDS011;56615;42.682;23.364;2023-01-16T18:03:33;48.25;;;25.38;;
36475;SDS011;56615;42.682;23.364;2023-01-16T18:06:22;48.85;;;25.42;;
36475;SDS011;56615;42.682;23.364;2023-01-16T18:08:52;48.15;;;26.85;;
36475;SDS011;56615;42.682;23.364;2023-01-16T18:11:19;45.85;;;25.33;;
36475;SDS011;56615;42.682;23.364;2023-01-16T18:14:04;47.00;;;25.35;;
36475;SDS011;56615;42.682;23.364;2023-01-16T18:16:49;48.33;;;25.48;;
36475;SDS011;56615;42.682;23.364;2023-01-16T18:19:33;49.53;;;26.85;;
36475;SDS011;56615;42.682;23.364;2023-01-16T18:21:59;49.10;;;28.77;;
36475;SDS011;56615;42.682;23.364;2023-01-16T18:24:28;50.38;;;27.63;;
36475;SDS011;56615;42.682;23.364;2023-01-16T18:26:58;50.35;;;27.70;;
36475;SDS011;56615;42.682;23.364;2023-01-16T18:29:24;49.28;;;26.80;;
36475;SDS011;56615;42.682;23.364;2023-01-16T18:31:52;51.67;;;28.35;;
36475;SDS011;56615;42.682;23.364;2023-01-16T18:34:36;52.88;;;29.38;;
36475;SDS011;56615;42.682;23.364;2023-01-16T18:37:05;49.95;;;27.20;;
36475;SDS011;56615;42.682;23.364;2023-01-16T18:39:34;49.83;;;26.30;;
36475;SDS011;56615;42.682;23.364;2023-01-16T18:42:18;49.05;;;26.85;;
36475;SDS011;56615;42.682;23.364;2023-01-16T18:45:03;45.55;;;24.48;;
36475;SDS011;56615;42.682;23.364;2023-01-16T18:47:47;44.00;;;25.50;;
36475;SDS011;56615;42.682;23.364;2023-01-16T18:50:31;47.13;;;25.95;;
36475;SDS011;56615;42.682;23.364;2023-01-16T18:53:21;43.65;;;24.48;;
36475;SDS011;56615;42.682;23.364;2023-01-16T18:56:12;43.45;;;24.25;;
36475;SDS011;56615;42.682;23.364;2023-01-16T18:58:57;39.78;;;22.85;;
36475;SDS011;56615;42.682;23.364;2023-01-16T19:01:41;40.58;;;22.73;;
36475;SDS011;56615;42.682;23.364;2023-01-16T19:04:27;39.33;;;21.38;;